sensor_id;sensor_type;location;lat;lon;timestamp;pressure;altitude;pressure_sealevel;temperature;humidity
43420;BME280;29017;51.514;-0.178;2023-03-01T00:00:14;102809.56;;;8.12;78.31
43420;BME280;29017;51.514;-0.178;2023-03-01T00:02:41;102813.84;;;8.13;78.21
43420;BME280;29017;51.514;-0.178;2023-03-01T00:05:08;102816.56;;;8.12;78.92
43420;BME280;29017;51.514;-0.178;2023-03-01T00:07:35;102815.44;;;8.16;78.22
43420;BME280;29017;51.514;-0.178;2023-03-01T00:10:02;102807.41;;;8.19;78.67
43420;BME280;29017;51.514;-0.178;2023-03-01T00:12:30;102816.13;;;8.20;79.21
43420;BME280;29017;51.514;-0.178;2023-03-01T00:14:58;102819.78;;;8.17;78.43
43420;BME280;29017;51.514;-0.178;2023-03-01T00:17:25;102818.91;;;8.16;77.43
43420;BME280;29017;51.514;-0.178;2023-03-01T00:19:54;102823.59;;;8.11;77.30
43420;BME280;29017;51.514;-0.178;2023-03-01T00:22:21;102823.59;;;8.11;77.82
43420;BME280;29017;51.514;-0.178;2023-03-01T00:24:47;102828.81;;;8.11;78.54
43420;BME280;29017;51.514;-0.178;2023-03-01T00:27:14;102832.28;;;8.12;77.27
43420;BME280;29017;51.514;-0.178;2023-03-01T00:29:41;102830.59;;;8.11;78.18
43420;BME280;29017;51.514;-0.178;2023-03-01T00:32:08;102828.81;;;8.11;78.27
43420;BME280;29017;51.514;-0.178;2023-03-01T00:34:35;102836.50;;;8.14;77.75
43420;BME280;29017;51.514;-0.178;2023-03-01T00:37:02;102834.06;;;8.11;77.65
43420;BME280;29017;51.514;-0.178;2023-03-01T00:39:31;102830.59;;;8.11;79.16
43420;BME280;29017;51.514;-0.178;2023-03-01T00:41:59;102820.38;;;8.06;78.82
43420;BME280;29017;51.514;-0.178;2023-03-01T00:44:27;102821.38;;;8.04;78.45
43420;BME280;29017;51.514;-0.178;2023-03-01T00:46:54;102821.56;;;8.01;78.77
43420;BME280;29017;51.514;-0.178;2023-03-01T00:49:21;102820.78;;;7.99;79.77
43420;BME280;29017;51.514;-0.178;2023-03-01T00:51:50;102818.09;;;8.00;78.54
43420;BME280;29017;51.514;-0.178;2023-03-01T00:54:21;102815.66;;;7.97;78.67
43420;BME280;29017;51.514;-0.178;2023-03-01T00:56:48;102817.25;;;8.00;78.82
43420;BME280;29017;51.514;-0.178;2023-03-01T00:59:15;102808.63;;;7.98;78.54
43420;BME280;29017;51.514;-0.178;2023-03-01T01:01:42;102817.25;;;8.00;78.74
43420;BME280;29017;51.514;-0.178;2023-03-01T01:04:10;102812.00;;;8.00;78.58
43420;BME280;29017;51.514;-0.178;2023-03-01T01:06:38;102811.34;;;7.96;79.46
43420;BME280;29017;51.514;-0.178;2023-03-01T01:09:06;102809.84;;;7.92;79.07
43420;BME280;29017;51.514;-0.178;2023-03-01T01:11:34;102818.97;;;7.85;79.13
43420;BME280;29017;51.514;-0.178;2023-03-01T01:14:03;102814.50;;;7.87;80.21
43420;BME280;29017;51.514;-0.178;2023-03-01T01:16:30;102822.34;;;7.87;80.66
43420;BME280;29017;51.514;-0.178;2023-03-01T01:18:57;102823.09;;;7.89;78.98
43420;BME280;29017;51.514;-0.178;2023-03-01T01:21:25;102815.22;;;7.89;78.71
43420;BME280;29017;51.514;-0.178;2023-03-01T01:23:52;102815.09;;;7.92;78.48
43420;BME280;29017;51.514;-0.178;2023-03-01T01:26:21;102806.53;;;7.89;79.39
43420;BME280;29017;51.514;-0.178;2023-03-01T01:28:48;102819.53;;;7.90;79.23
43420;BME280;29017;51.514;-0.178;2023-03-01T01:31:15;102815.31;;;7.88;79.15
43420;BME280;29017;51.514;-0.178;2023-03-01T01:33:42;102807.44;;;7.88;79.29
43420;BME280;29017;51.514;-0.178;2023-03-01T01:36:10;102811.69;;;7.90;79.17
43420;BME280;29017;51.514;-0.178;2023-03-01T01:38:37;102808.28;;;7.88;79.66
43420;BME280;29017;51.514;-0.178;2023-03-01T01:41:05;102804.81;;;7.88;79.24
43420;BME280;29017;51.514;-0.178;2023-03-01T01:43:34;102803.16;;;7.87;79.48
43420;BME280;29017;51.514;-0.178;2023-03-01T01:46:03;102806.03;;;7.82;78.99
43420;BME280;29017;51.514;-0.178;2023-03-01T01:51:08;102795.38;;;7.69;79.39
43420;BME280;29017;51.514;-0.178;2023-03-01T01:53:36;102790.22;;;7.68;80.11
43420;BME280;29017;51.514;-0.178;2023-03-01T01:56:03;102789.22;;;7.70;81.59
43420;BME280;29017;51.514;-0.178;2023-03-01T01:58:33;102782.28;;;7.69;81.74
43420;BME280;29017;51.514;-0.178;2023-03-01T02:01:00;102783.06;;;7.71;80.33
43420;BME280;29017;51.514;-0.178;2023-03-01T02:03:29;102776.78;;;7.74;79.50
43420;BME280;29017;51.514;-0.178;2023-03-01T02:06:03;102775.09;;;7.73;79.84
43420;BME280;29017;51.514;-0.178;2023-03-01T02:08:32;102771.56;;;7.74;79.53
43420;BME280;29017;51.514;-0.178;2023-03-01T02:10:59;102771.72;;;7.71;79.55
43420;BME280;29017;51.514;-0.178;2023-03-01T02:13:27;102764.03;;;7.68;79.95
43420;BME280;29017;51.514;-0.178;2023-03-01T02:15:54;102766.66;;;7.68;81.71
43420;BME280;29017;51.514;-0.178;2023-03-01T02:18:21;102762.44;;;7.65;81.35
43420;BME280;29017;51.514;-0.178;2023-03-01T02:23:20;102754.41;;;7.68;80.64
43420;BME280;29017;51.514;-0.178;2023-03-01T02:25:50;102759.63;;;7.68;80.71
43420;BME280;29017;51.514;-0.178;2023-03-01T02:30:51;102752.63;;;7.69;79.96
43420;BME280;29017;51.514;-0.178;2023-03-01T02:33:22;102755.16;;;7.70;80.17
43420;BME280;29017;51.514;-0.178;2023-03-01T02:35:50;102760.47;;;7.69;80.81
43420;BME280;29017;51.514;-0.178;2023-03-01T02:38:18;102748.41;;;7.66;81.90
43420;BME280;29017;51.514;-0.178;2023-03-01T02:40:46;102745.88;;;7.65;80.66
43420;BME280;29017;51.514;-0.178;2023-03-01T02:43:14;102743.34;;;7.63;80.95
43420;BME280;29017;51.514;-0.178;2023-03-01T02:48:11;102748.66;;;7.62;79.93
43420;BME280;29017;51.514;-0.178;2023-03-01T02:53:09;102741.16;;;7.56;80.25
43420;BME280;29017;51.514;-0.178;2023-03-01T02:55:39;102734.56;;;7.49;80.78
43420;BME280;29017;51.514;-0.178;2023-03-01T02:58:06;102721.66;;;7.46;80.87
43420;BME280;29017;51.514;-0.178;2023-03-01T03:00:35;102725.19;;;7.45;81.50
43420;BME280;29017;51.514;-0.178;2023-03-01T03:03:06;102725.94;;;7.47;81.14
43420;BME280;29017;51.514;-0.178;2023-03-01T03:05:33;102719.78;;;7.48;81.01
43420;BME280;29017;51.514;-0.178;2023-03-01T03:08:00;102714.38;;;7.51;81.93
43420;BME280;29017;51.514;-0.178;2023-03-01T03:10:29;102711.00;;;7.49;80.76
43420;BME280;29017;51.514;-0.178;2023-03-01T03:12:57;102711.84;;;7.49;80.87
43420;BME280;29017;51.514;-0.178;2023-03-01T03:15:25;102715.38;;;7.48;81.21
43420;BME280;29017;51.514;-0.178;2023-03-01T03:17:52;102716.03;;;7.52;81.93
43420;BME280;29017;51.514;-0.178;2023-03-01T03:20:20;102715.13;;;7.53;80.99
43420;BME280;29017;51.514;-0.178;2023-03-01T03:22:48;102706.69;;;7.48;81.12
43420;BME280;29017;51.514;-0.178;2023-03-01T03:25:16;102712.03;;;7.46;81.73
43420;BME280;29017;51.514;-0.178;2023-03-01T03:27:44;102709.47;;;7.45;81.99
43420;BME280;29017;51.514;-0.178;2023-03-01T03:30:12;102714.22;;;7.38;82.88
43420;BME280;29017;51.514;-0.178;2023-03-01T03:32:40;102709.88;;;7.37;82.30
43420;BME280;29017;51.514;-0.178;2023-03-01T03:35:08;102700.38;;;7.36;82.55
43420;BME280;29017;51.514;-0.178;2023-03-01T03:37:36;102700.38;;;7.36;83.26
43420;BME280;29017;51.514;-0.178;2023-03-01T03:40:07;102694.19;;;7.37;83.74
43420;BME280;29017;51.514;-0.178;2023-03-01T03:42:41;102699.41;;;7.37;83.31
43420;BME280;29017;51.514;-0.178;2023-03-01T03:45:08;102693.44;;;7.35;83.67
43420;BME280;29017;51.514;-0.178;2023-03-01T03:47:35;102699.69;;;7.32;83.90
43420;BME280;29017;51.514;-0.178;2023-03-01T03:50:02;102692.75;;;7.31;84.82
43420;BME280;29017;51.514;-0.178;2023-03-01T03:52:29;102691.16;;;7.29;84.73
43420;BME280;29017;51.514;-0.178;2023-03-01T03:54:55;102689.38;;;7.29;84.92
43420;BME280;29017;51.514;-0.178;2023-03-01T03:57:22;102686.78;;;7.29;84.99
43420;BME280;29017;51.514;-0.178;2023-03-01T03:59:49;102681.47;;;7.31;84.94
43420;BME280;29017;51.514;-0.178;2023-03-01T04:02:16;102680.63;;;7.30;84.98
43420;BME280;29017;51.514;-0.178;2023-03-01T04:04:48;102683.72;;;7.21;85.21
43420;BME280;29017;51.514;-0.178;2023-03-01T04:07:16;102672.66;;;7.16;85.55
43420;BME280;29017;51.514;-0.178;2023-03-01T04:09:43;102677.06;;;7.16;85.80
43420;BME280;29017;51.514;-0.178;2023-03-01T04:12:10;102673.63;;;7.15;86.37
43420;BME280;29017;51.514;-0.178;2023-03-01T04:14:37;102675.53;;;7.12;86.72
43420;BME280;29017;51.514;-0.178;2023-03-01T04:17:04;102670.41;;;7.10;86.18
43420;BME280;29017;51.514;-0.178;2023-03-01T04:19:31;102662.63;;;7.09;86.76
43420;BME280;29017;51.514;-0.178;2023-03-01T04:22:02;102660.19;;;7.06;87.56
43420;BME280;29017;51.514;-0.178;2023-03-01T04:24:35;102659.34;;;7.05;86.95
43420;BME280;29017;51.514;-0.178;2023-03-01T04:27:02;102655.97;;;7.03;86.65
43420;BME280;29017;51.514;-0.178;2023-03-01T04:29:29;102660.28;;;7.04;87.25
43420;BME280;29017;51.514;-0.178;2023-03-01T04:31:56;102659.59;;;7.01;87.25
43420;BME280;29017;51.514;-0.178;2023-03-01T04:34:23;102650.06;;;7.00;87.19
43420;BME280;29017;51.514;-0.178;2023-03-01T04:36:50;102650.97;;;6.99;87.90
43420;BME280;29017;51.514;-0.178;2023-03-01T04:39:17;102655.03;;;7.04;89.17
43420;BME280;29017;51.514;-0.178;2023-03-01T04:41:44;102659.16;;;7.08;88.39
43420;BME280;29017;51.514;-0.178;2023-03-01T04:44:10;102649.53;;;7.09;87.92
43420;BME280;29017;51.514;-0.178;2023-03-01T04:46:39;102647.19;;;7.04;88.46
43420;BME280;29017;51.514;-0.178;2023-03-01T04:49:06;102646.00;;;7.10;88.12
43420;BME280;29017;51.514;-0.178;2023-03-01T04:51:33;102643.28;;;7.11;87.86
43420;BME280;29017;51.514;-0.178;2023-03-01T04:54:00;102634.50;;;7.12;88.74
43420;BME280;29017;51.514;-0.178;2023-03-01T04:56:27;102641.50;;;7.12;88.56
43420;BME280;29017;51.514;-0.178;2023-03-01T04:58:54;102642.28;;;7.14;89.47
43420;BME280;29017;51.514;-0.178;2023-03-01T05:01:21;102642.19;;;7.15;89.46
43420;BME280;29017;51.514;-0.178;2023-03-01T05:03:49;102648.28;;;7.16;88.53
43420;BME280;29017;51.514;-0.178;2023-03-01T05:06:16;102633.50;;;7.15;88.52
43420;BME280;29017;51.514;-0.178;2023-03-01T05:08:43;102633.31;;;7.18;88.47
43420;BME280;29017;51.514;-0.178;2023-03-01T05:11:11;102636.13;;;7.15;88.55
43420;BME280;29017;51.514;-0.178;2023-03-01T05:13:38;102635.09;;;7.17;89.40
43420;BME280;29017;51.514;-0.178;2023-03-01T05:16:06;102637.63;;;7.19;88.78
43420;BME280;29017;51.514;-0.178;2023-03-01T05:18:33;102635.94;;;7.18;88.08
43420;BME280;29017;51.514;-0.178;2023-03-01T05:23:31;102633.06;;;7.22;87.01
43420;BME280;29017;51.514;-0.178;2023-03-01T05:25:58;102630.28;;;7.25;86.22
43420;BME280;29017;51.514;-0.178;2023-03-01T05:28:26;102624.22;;;7.25;86.82
43420;BME280;29017;51.514;-0.178;2023-03-01T05:30:54;102628.66;;;7.23;87.71
43420;BME280;29017;51.514;-0.178;2023-03-01T05:33:21;102633.16;;;7.21;88.39
43420;BME280;29017;51.514;-0.178;2023-03-01T05:35:49;102625.13;;;7.24;88.25
43420;BME280;29017;51.514;-0.178;2023-03-01T05:38:16;102620.81;;;7.23;87.71
43420;BME280;29017;51.514;-0.178;2023-03-01T05:40:43;102612.97;;;7.23;86.92
43420;BME280;29017;51.514;-0.178;2023-03-01T05:43:10;102616.50;;;7.22;86.46
43420;BME280;29017;51.514;-0.178;2023-03-01T05:45:37;102613.03;;;7.21;86.64
43420;BME280;29017;51.514;-0.178;2023-03-01T05:48:05;102612.13;;;7.22;87.49
43420;BME280;29017;51.514;-0.178;2023-03-01T05:50:33;102618.19;;;7.23;88.15
43420;BME280;29017;51.514;-0.178;2023-03-01T05:55:32;102612.97;;;7.23;85.77
43420;BME280;29017;51.514;-0.178;2023-03-01T05:57:59;102619.31;;;7.19;85.86
43420;BME280;29017;51.514;-0.178;2023-03-01T06:00:26;102610.59;;;7.18;87.12
43420;BME280;29017;51.514;-0.178;2023-03-01T06:02:54;102609.75;;;7.18;87.03
43420;BME280;29017;51.514;-0.178;2023-03-01T06:05:21;102611.53;;;7.17;86.26
43420;BME280;29017;51.514;-0.178;2023-03-01T06:07:48;102613.22;;;7.18;86.73
43420;BME280;29017;51.514;-0.178;2023-03-01T06:10:16;102608.00;;;7.18;86.48
43420;BME280;29017;51.514;-0.178;2023-03-01T06:12:44;102605.19;;;7.21;86.92
43420;BME280;29017;51.514;-0.178;2023-03-01T06:15:12;102617.28;;;7.24;86.63
43420;BME280;29017;51.514;-0.178;2023-03-01T06:17:39;102620.56;;;7.27;86.45
43420;BME280;29017;51.514;-0.178;2023-03-01T06:20:08;102623.16;;;7.27;86.06
43420;BME280;29017;51.514;-0.178;2023-03-01T06:22:35;102615.31;;;7.27;85.28
43420;BME280;29017;51.514;-0.178;2023-03-01T06:25:02;102620.66;;;7.26;84.95
43420;BME280;29017;51.514;-0.178;2023-03-01T06:27:29;102623.28;;;7.26;85.36
43420;BME280;29017;51.514;-0.178;2023-03-01T06:29:56;102612.03;;;7.24;85.66
43420;BME280;29017;51.514;-0.178;2023-03-01T06:32:23;102620.66;;;7.26;85.82
43420;BME280;29017;51.514;-0.178;2023-03-01T06:34:50;102618.84;;;7.26;84.88
43420;BME280;29017;51.514;-0.178;2023-03-01T06:37:17;102626.63;;;7.28;85.28
43420;BME280;29017;51.514;-0.178;2023-03-01T06:39:43;102629.25;;;7.28;85.04
43420;BME280;29017;51.514;-0.178;2023-03-01T06:42:10;102632.91;;;7.25;84.93
43420;BME280;29017;51.514;-0.178;2023-03-01T06:44:37;102632.06;;;7.25;85.08
43420;BME280;29017;51.514;-0.178;2023-03-01T06:47:04;102629.44;;;7.25;84.95
43420;BME280;29017;51.514;-0.178;2023-03-01T06:49:31;102641.69;;;7.24;84.53
43420;BME280;29017;51.514;-0.178;2023-03-01T06:52:00;102640.06;;;7.22;85.08
43420;BME280;29017;51.514;-0.178;2023-03-01T06:54:26;102634.94;;;7.20;85.41
43420;BME280;29017;51.514;-0.178;2023-03-01T06:56:53;102632.13;;;7.23;85.56
43420;BME280;29017;51.514;-0.178;2023-03-01T06:59:20;102630.28;;;7.25;85.45
43420;BME280;29017;51.514;-0.178;2023-03-01T07:01:47;102638.88;;;7.27;85.63
43420;BME280;29017;51.514;-0.178;2023-03-01T07:04:14;102634.22;;;7.32;84.69
43420;BME280;29017;51.514;-0.178;2023-03-01T07:06:41;102636.78;;;7.34;84.06
43420;BME280;29017;51.514;-0.178;2023-03-01T07:09:07;102642.19;;;7.31;84.34
43420;BME280;29017;51.514;-0.178;2023-03-01T07:11:34;102643.38;;;7.25;84.27
43420;BME280;29017;51.514;-0.178;2023-03-01T07:14:01;102641.16;;;7.18;83.84
43420;BME280;29017;51.514;-0.178;2023-03-01T07:16:28;102642.03;;;7.18;84.18
43420;BME280;29017;51.514;-0.178;2023-03-01T07:18:55;102642.94;;;7.17;84.02
43420;BME280;29017;51.514;-0.178;2023-03-01T07:21:25;102644.44;;;7.21;84.70
43420;BME280;29017;51.514;-0.178;2023-03-01T07:23:51;102645.31;;;7.22;83.92
43420;BME280;29017;51.514;-0.178;2023-03-01T07:26:18;102642.34;;;7.28;83.68
43420;BME280;29017;51.514;-0.178;2023-03-01T07:28:45;102641.41;;;7.29;84.06
43420;BME280;29017;51.514;-0.178;2023-03-01T07:31:12;102650.84;;;7.31;83.39
43420;BME280;29017;51.514;-0.178;2023-03-01T07:33:39;102651.72;;;7.32;83.45
43420;BME280;29017;51.514;-0.178;2023-03-01T07:36:06;102651.63;;;7.34;83.26
43420;BME280;29017;51.514;-0.178;2023-03-01T07:38:33;102648.09;;;7.35;83.08
43420;BME280;29017;51.514;-0.178;2023-03-01T07:41:01;102639.97;;;7.39;83.20
43420;BME280;29017;51.514;-0.178;2023-03-01T07:43:29;102646.91;;;7.40;82.57
43420;BME280;29017;51.514;-0.178;2023-03-01T07:45:58;102638.78;;;7.45;82.60
43420;BME280;29017;51.514;-0.178;2023-03-01T07:48:25;102643.75;;;7.49;82.95
43420;BME280;29017;51.514;-0.178;2023-03-01T07:50:52;102638.25;;;7.54;82.07
43420;BME280;29017;51.514;-0.178;2023-03-01T07:53:19;102630.19;;;7.57;82.20
43420;BME280;29017;51.514;-0.178;2023-03-01T07:56:02;102637.06;;;7.59;81.80
43420;BME280;29017;51.514;-0.178;2023-03-01T07:58:30;102625.47;;;7.63;83.40
43420;BME280;29017;51.514;-0.178;2023-03-01T08:01:00;102624.13;;;7.86;89.49
43420;BME280;29017;51.514;-0.178;2023-03-01T08:03:27;102630.78;;;7.92;84.03
43420;BME280;29017;51.514;-0.178;2023-03-01T08:05:54;102628.31;;;7.89;80.31
43420;BME280;29017;51.514;-0.178;2023-03-01T08:08:21;102646.22;;;7.82;80.24
43420;BME280;29017;51.514;-0.178;2023-03-01T08:10:48;102643.94;;;7.76;80.98
43420;BME280;29017;51.514;-0.178;2023-03-01T08:13:15;102644.22;;;7.71;81.01
43420;BME280;29017;51.514;-0.178;2023-03-01T08:15:44;102634.94;;;7.66;81.05
43420;BME280;29017;51.514;-0.178;2023-03-01T08:18:13;102629.63;;;7.52;80.86
43420;BME280;29017;51.514;-0.178;2023-03-01T08:20:40;102634.28;;;7.47;81.22
43420;BME280;29017;51.514;-0.178;2023-03-01T08:23:07;102626.34;;;7.48;81.78
43420;BME280;29017;51.514;-0.178;2023-03-01T08:25:34;102627.00;;;7.52;81.35
43420;BME280;29017;51.514;-0.178;2023-03-01T08:28:01;102619.91;;;7.54;81.67
43420;BME280;29017;51.514;-0.178;2023-03-01T08:30:29;102620.41;;;7.60;80.91
43420;BME280;29017;51.514;-0.178;2023-03-01T08:32:56;102615.41;;;7.71;80.48
43420;BME280;29017;51.514;-0.178;2023-03-01T08:35:23;102614.06;;;7.79;79.91
43420;BME280;29017;51.514;-0.178;2023-03-01T08:37:50;102614.56;;;7.85;80.24
43420;BME280;29017;51.514;-0.178;2023-03-01T08:40:17;102605.16;;;7.97;79.92
43420;BME280;29017;51.514;-0.178;2023-03-01T08:42:44;102610.41;;;8.11;78.84
43420;BME280;29017;51.514;-0.178;2023-03-01T08:45:12;102609.75;;;8.22;80.06
43420;BME280;29017;51.514;-0.178;2023-03-01T08:47:40;102607.53;;;8.30;77.50
43420;BME280;29017;51.514;-0.178;2023-03-01T08:50:08;102608.28;;;8.32;76.71
43420;BME280;29017;51.514;-0.178;2023-03-01T08:52:35;102611.03;;;8.29;76.92
43420;BME280;29017;51.514;-0.178;2023-03-01T08:55:02;102604.31;;;8.39;77.80
43420;BME280;29017;51.514;-0.178;2023-03-01T08:57:29;102609.00;;;8.62;78.12
43420;BME280;29017;51.514;-0.178;2023-03-01T08:59:56;102615.03;;;8.91;76.30
43420;BME280;29017;51.514;-0.178;2023-03-01T09:02:23;102607.34;;;9.15;75.84
43420;BME280;29017;51.514;-0.178;2023-03-01T09:04:50;102618.00;;;9.26;72.90
43420;BME280;29017;51.514;-0.178;2023-03-01T09:07:21;102606.41;;;9.42;72.77
43420;BME280;29017;51.514;-0.178;2023-03-01T09:09:59;102608.00;;;9.58;72.21
43420;BME280;29017;51.514;-0.178;2023-03-01T09:12:26;102601.81;;;9.59;71.68
43420;BME280;29017;51.514;-0.178;2023-03-01T09:14:53;102609.56;;;8.94;71.92
43420;BME280;29017;51.514;-0.178;2023-03-01T09:17:20;102600.38;;;9.01;72.06
43420;BME280;29017;51.514;-0.178;2023-03-01T09:19:48;102610.25;;;8.97;72.25
43420;BME280;29017;51.514;-0.178;2023-03-01T09:22:15;102595.72;;;8.92;72.61
43420;BME280;29017;51.514;-0.178;2023-03-01T09:24:42;102590.66;;;8.89;72.67
43420;BME280;29017;51.514;-0.178;2023-03-01T09:27:10;102586.75;;;8.82;73.14
43420;BME280;29017;51.514;-0.178;2023-03-01T09:29:39;102592.63;;;8.85;73.37
43420;BME280;29017;51.514;-0.178;2023-03-01T09:32:06;102583.38;;;8.80;74.00
43420;BME280;29017;51.514;-0.178;2023-03-01T09:34:34;102578.78;;;8.83;74.03
43420;BME280;29017;51.514;-0.178;2023-03-01T09:37:21;102584.84;;;8.84;74.13
43420;BME280;29017;51.514;-0.178;2023-03-01T09:39:48;102577.09;;;8.82;74.35
43420;BME280;29017;51.514;-0.178;2023-03-01T09:42:15;102571.72;;;8.84;74.54
43420;BME280;29017;51.514;-0.178;2023-03-01T09:44:45;102574.19;;;8.87;74.39
43420;BME280;29017;51.514;-0.178;2023-03-01T09:47:18;102576.97;;;8.84;73.36
43420;BME280;29017;51.514;-0.178;2023-03-01T09:52:36;102564.09;;;8.67;74.75
43420;BME280;29017;51.514;-0.178;2023-03-01T09:55:08;102560.56;;;8.68;74.87
43420;BME280;29017;51.514;-0.178;2023-03-01T09:57:36;102557.25;;;8.64;74.67
43420;BME280;29017;51.514;-0.178;2023-03-01T10:10:06;102553.09;;;8.88;76.53
43420;BME280;29017;51.514;-0.178;2023-03-01T10:12:35;102560.78;;;9.04;75.00
43420;BME280;29017;51.514;-0.178;2023-03-01T10:17:34;102547.94;;;9.14;71.34
43420;BME280;29017;51.514;-0.178;2023-03-01T10:22:33;102560.94;;;9.15;71.29
43420;BME280;29017;51.514;-0.178;2023-03-01T10:25:02;102552.09;;;9.04;70.24
43420;BME280;29017;51.514;-0.178;2023-03-01T10:32:29;102564.78;;;8.97;72.87
43420;BME280;29017;51.514;-0.178;2023-03-01T10:34:57;102562.88;;;8.99;73.62
43420;BME280;29017;51.514;-0.178;2023-03-01T10:37:25;102550.16;;;8.93;73.99
43420;BME280;29017;51.514;-0.178;2023-03-01T10:42:26;102547.25;;;8.97;74.53
43420;BME280;29017;51.514;-0.178;2023-03-01T10:44:54;102549.78;;;8.85;73.86
43420;BME280;29017;51.514;-0.178;2023-03-01T10:47:24;102542.13;;;8.82;73.59
43420;BME280;29017;51.514;-0.178;2023-03-01T10:49:53;102539.59;;;8.80;74.44
43420;BME280;29017;51.514;-0.178;2023-03-01T10:52:21;102543.06;;;8.81;73.92
43420;BME280;29017;51.514;-0.178;2023-03-01T10:59:51;102530.47;;;8.73;73.84
43420;BME280;29017;51.514;-0.178;2023-03-01T11:02:28;102531.19;;;8.75;73.88
43420;BME280;29017;51.514;-0.178;2023-03-01T11:04:58;102529.50;;;8.74;73.69
43420;BME280;29017;51.514;-0.178;2023-03-01T11:07:25;102523.13;;;8.78;73.84
43420;BME280;29017;51.514;-0.178;2023-03-01T11:09:52;102512.22;;;8.84;73.58
43420;BME280;29017;51.514;-0.178;2023-03-01T11:12:20;102511.72;;;8.92;73.70
43420;BME280;29017;51.514;-0.178;2023-03-01T11:14:48;102506.56;;;8.90;72.04
43420;BME280;29017;51.514;-0.178;2023-03-01T11:17:20;102507.25;;;8.80;72.39
43420;BME280;29017;51.514;-0.178;2023-03-01T11:22:28;102513.72;;;8.88;71.83
43420;BME280;29017;51.514;-0.178;2023-03-01T11:24:55;102511.81;;;8.90;71.56
43420;BME280;29017;51.514;-0.178;2023-03-01T11:27:38;102497.00;;;8.89;71.39
43420;BME280;29017;51.514;-0.178;2023-03-01T11:45:08;102474.16;;;9.04;71.17
43420;BME280;29017;51.514;-0.178;2023-03-01T11:52:40;102464.63;;;9.03;72.30
43420;BME280;29017;51.514;-0.178;2023-03-01T12:22:45;102408.44;;;9.18;73.15
43420;BME280;29017;51.514;-0.178;2023-03-01T12:27:55;102407.50;;;9.32;73.11
43420;BME280;29017;51.514;-0.178;2023-03-01T12:45:28;102392.75;;;9.67;70.53
43420;BME280;29017;51.514;-0.178;2023-03-01T12:50:36;102371.75;;;9.55;70.56
43420;BME280;29017;51.514;-0.178;2023-03-01T12:53:06;102366.50;;;9.55;70.42
43420;BME280;29017;51.514;-0.178;2023-03-01T12:55:36;102356.69;;;9.57;71.41
43420;BME280;29017;51.514;-0.178;2023-03-01T13:03:11;102347.03;;;9.70;69.87
43420;BME280;29017;51.514;-0.178;2023-03-01T13:05:47;102343.81;;;9.77;67.94
43420;BME280;29017;51.514;-0.178;2023-03-01T13:08:26;102335.72;;;9.80;68.11
43420;BME280;29017;51.514;-0.178;2023-03-01T13:10:58;102334.66;;;9.83;67.65
43420;BME280;29017;51.514;-0.178;2023-03-01T13:13:27;102338.84;;;9.85;67.36
43420;BME280;29017;51.514;-0.178;2023-03-01T13:15:55;102324.69;;;9.75;66.90
43420;BME280;29017;51.514;-0.178;2023-03-01T13:20:52;102326.94;;;9.69;66.86
43420;BME280;29017;51.514;-0.178;2023-03-01T13:30:48;102319.50;;;9.86;65.86
43420;BME280;29017;51.514;-0.178;2023-03-01T13:33:33;102321.69;;;9.93;65.42
43420;BME280;29017;51.514;-0.178;2023-03-01T13:36:00;102317.28;;;9.93;64.32
43420;BME280;29017;51.514;-0.178;2023-03-01T13:40:59;102312.63;;;9.97;64.11
43420;BME280;29017;51.514;-0.178;2023-03-01T13:45:56;102303.69;;;9.99;65.16
43420;BME280;29017;51.514;-0.178;2023-03-01T13:48:25;102316.69;;;10.01;65.68
43420;BME280;29017;51.514;-0.178;2023-03-01T13:50:55;102301.91;;;10.11;65.03
43420;BME280;29017;51.514;-0.178;2023-03-01T13:53:24;102302.75;;;10.24;65.12
43420;BME280;29017;51.514;-0.178;2023-03-01T13:55:55;102294.00;;;10.23;64.96
43420;BME280;29017;51.514;-0.178;2023-03-01T13:58:27;102290.78;;;10.31;64.59
43420;BME280;29017;51.514;-0.178;2023-03-01T14:00:55;102290.47;;;10.36;65.42
43420;BME280;29017;51.514;-0.178;2023-03-01T14:03:23;102286.16;;;10.35;64.78
43420;BME280;29017;51.514;-0.178;2023-03-01T14:08:33;102278.78;;;10.16;65.79
43420;BME280;29017;51.514;-0.178;2023-03-01T14:18:29;102262.28;;;10.49;65.81
43420;BME280;29017;51.514;-0.178;2023-03-01T14:21:00;102261.34;;;10.61;65.41
43420;BME280;29017;51.514;-0.178;2023-03-01T14:23:27;102260.84;;;10.67;64.90
43420;BME280;29017;51.514;-0.178;2023-03-01T14:25:55;102254.03;;;10.64;64.60
43420;BME280;29017;51.514;-0.178;2023-03-01T14:30:54;102254.97;;;10.41;64.08
43420;BME280;29017;51.514;-0.178;2023-03-01T14:38:22;102242.84;;;10.27;65.29
43420;BME280;29017;51.514;-0.178;2023-03-01T14:40:51;102236.75;;;10.27;64.79
43420;BME280;29017;51.514;-0.178;2023-03-01T14:43:22;102230.53;;;10.28;65.08
43420;BME280;29017;51.514;-0.178;2023-03-01T14:45:52;102230.44;;;10.29;64.99
43420;BME280;29017;51.514;-0.178;2023-03-01T14:48:20;102230.19;;;10.33;64.70
43420;BME280;29017;51.514;-0.178;2023-03-01T14:50:47;102226.25;;;10.38;63.40
43420;BME280;29017;51.514;-0.178;2023-03-01T14:53:16;102225.41;;;10.38;63.31
43420;BME280;29017;51.514;-0.178;2023-03-01T14:55:46;102220.16;;;10.38;64.01
43420;BME280;29017;51.514;-0.178;2023-03-01T14:58:14;102217.50;;;10.38;63.42
43420;BME280;29017;51.514;-0.178;2023-03-01T15:00:47;102217.13;;;10.31;63.58
43420;BME280;29017;51.514;-0.178;2023-03-01T15:05:45;102209.25;;;10.20;64.61
43420;BME280;29017;51.514;-0.178;2023-03-01T15:08:17;102205.16;;;10.16;64.90
43420;BME280;29017;51.514;-0.178;2023-03-01T15:13:21;102194.53;;;10.17;64.80
43420;BME280;29017;51.514;-0.178;2023-03-01T15:15:48;102198.59;;;10.21;65.15
43420;BME280;29017;51.514;-0.178;2023-03-01T15:20:46;102196.44;;;10.26;64.27
43420;BME280;29017;51.514;-0.178;2023-03-01T15:25:44;102181.53;;;10.38;63.99
43420;BME280;29017;51.514;-0.178;2023-03-01T15:28:12;102181.06;;;10.44;63.92
43420;BME280;29017;51.514;-0.178;2023-03-01T15:30:45;102166.94;;;10.45;63.52
43420;BME280;29017;51.514;-0.178;2023-03-01T15:33:20;102168.84;;;10.43;63.97
43420;BME280;29017;51.514;-0.178;2023-03-01T15:35:55;102160.13;;;10.43;63.81
43420;BME280;29017;51.514;-0.178;2023-03-01T15:40:59;102157.38;;;10.33;64.50